createdAt,value
2017-08-08T00:00:08.185Z,66.2
2017-08-08T00:05:08.298Z,66.1
2017-08-08T00:10:15.526Z,66.7
2017-08-08T00:15:06.291Z,66.8
2017-08-08T00:20:05.870Z,66.8
2017-08-08T00:25:02.933Z,66.8
2017-08-08T00:30:10.335Z,67.4
2017-08-08T00:35:03.514Z,67.4
2017-08-08T00:40:05.598Z,68
2017-08-08T00:45:08.461Z,68
2017-08-08T00:50:03.621Z,68.1
2017-08-08T00:55:18.914Z,68.1
2017-08-08T01:00:02.975Z,68
2017-08-08T01:05:12.845Z,68.6
2017-08-08T01:10:18.369Z,68.3
2017-08-08T01:15:11.069Z,68.9
2017-08-08T01:20:10.477Z,69
2017-08-08T01:25:08.393Z,69
2017-08-08T01:30:06.062Z,69.2
2017-08-08T01:35:03.325Z,69.2
2017-08-08T01:40:07.970Z,69.1
2017-08-08T01:45:10.769Z,69
2017-08-08T01:50:05.477Z,69.3
2017-08-08T01:55:28.758Z,69.3
2017-08-08T02:00:02.838Z,69.3
2017-08-08T02:05:06.197Z,69.5
2017-08-08T02:10:06.298Z,69.8
2017-08-08T02:15:10.875Z,69.8
2017-08-08T02:20:20.744Z,69.4
2017-08-08T02:25:06.312Z,69.5
2017-08-08T02:30:13.441Z,69.8
2017-08-08T02:35:18.801Z,70
2017-08-08T02:40:03.577Z,70
2017-08-08T02:45:11.392Z,70.2
2017-08-08T02:50:08.258Z,70.2
2017-08-08T02:55:03.477Z,70.1
2017-08-08T03:00:03.717Z,70.1
2017-08-08T03:05:04.058Z,70.5
2017-08-08T03:10:08.806Z,70.7
2017-08-08T03:15:02.898Z,70.7
2017-08-08T03:20:02.935Z,70.8
2017-08-08T03:25:22.920Z,70.9
2017-08-08T03:30:03.108Z,70.9
2017-08-08T03:35:05.910Z,70.9
2017-08-08T03:40:03.590Z,70.9
2017-08-08T03:45:03.830Z,71.2
2017-08-08T03:50:03.047Z,70.9
2017-08-08T03:55:03.285Z,70.9
2017-08-08T04:00:10.803Z,70.5
2017-08-08T04:05:06.381Z,70.2
2017-08-08T04:10:10.442Z,70.2
2017-08-08T04:15:03.836Z,70.2
2017-08-08T04:20:05.610Z,70.1
2017-08-08T04:25:11.479Z,70.2
2017-08-08T04:30:06.090Z,70.5
2017-08-08T04:35:07.965Z,70.5
2017-08-08T04:40:11.178Z,70.4
2017-08-08T04:45:18.367Z,70.3
2017-08-08T04:50:06.026Z,70
2017-08-08T04:55:03.293Z,69.9
2017-08-08T05:00:06.095Z,69.8
2017-08-08T05:05:13.400Z,69.1
2017-08-08T05:10:15.328Z,68.8
2017-08-08T05:15:06.044Z,68.9
2017-08-08T05:20:05.929Z,68.7
2017-08-08T05:25:03.098Z,68.7
2017-08-08T05:30:12.968Z,68.5
2017-08-08T05:35:08.183Z,67.9
2017-08-08T05:40:08.938Z,67.9
2017-08-08T05:45:07.947Z,67.9
2017-08-08T05:50:03.171Z,67.6
2017-08-08T05:55:05.868Z,67.1
2017-08-08T06:00:03.036Z,67.2
2017-08-08T06:05:12.946Z,66.5
2017-08-08T06:10:08.411Z,66.3
2017-08-08T06:15:03.552Z,66.3
2017-08-08T06:20:16.033Z,65.3
2017-08-08T06:25:05.567Z,65.1
2017-08-08T06:30:03.656Z,64.9
2017-08-08T06:35:03.897Z,65.1
2017-08-08T06:40:08.319Z,64.7
2017-08-08T06:45:05.915Z,64.5
2017-08-08T06:50:05.744Z,64.5
2017-08-08T06:55:11.082Z,63.4
2017-08-08T07:00:03.150Z,63.3
2017-08-08T07:05:05.847Z,61.6
2017-08-08T07:10:05.998Z,61.1
2017-08-08T07:15:07.849Z,61.1
2017-08-08T07:20:03.088Z,61.5
2017-08-08T07:25:03.005Z,62.4
2017-08-08T07:30:08.071Z,61.5
2017-08-08T07:35:05.755Z,61.8
2017-08-08T07:40:05.994Z,61.1
2017-08-08T07:45:05.621Z,61
2017-08-08T07:50:07.579Z,60.9
2017-08-08T07:55:08.449Z,60.6
2017-08-08T08:00:06.138Z,60.3
2017-08-08T08:05:16.101Z,60
2017-08-08T08:10:06.351Z,58.8
2017-08-08T08:15:03.472Z,58.8
2017-08-08T08:20:06.261Z,57.2
2017-08-08T08:25:03.341Z,57.2
2017-08-08T08:30:06.138Z,57.6
2017-08-08T08:35:05.766Z,57.6
2017-08-08T08:40:10.592Z,57.2
2017-08-08T08:45:04.294Z,57.2
2017-08-08T08:50:05.869Z,55.3
2017-08-08T08:55:03.038Z,55.3
2017-08-08T09:00:07.866Z,55.1
2017-08-08T09:05:05.570Z,54.9
2017-08-08T09:10:03.246Z,54.9
2017-08-08T09:15:08.067Z,54.2
2017-08-08T09:20:18.307Z,52.8
2017-08-08T09:25:03.454Z,52.8
2017-08-08T09:30:03.692Z,53.3
2017-08-08T09:35:11.037Z,52.4
2017-08-08T09:40:03.557Z,52.2
2017-08-08T09:45:06.251Z,51.2
2017-08-08T09:50:10.575Z,50.8
2017-08-08T09:55:08.455Z,51.5
2017-08-08T10:00:06.161Z,51.3
2017-08-08T10:05:03.323Z,51.2
2017-08-08T10:10:10.199Z,52.1
2017-08-08T10:15:08.310Z,51.5
2017-08-08T10:20:05.989Z,51.4
2017-08-08T10:25:05.821Z,50.4
2017-08-08T10:30:08.110Z,50.2
2017-08-08T10:35:03.330Z,50.2
2017-08-08T10:40:08.178Z,51.7
2017-08-08T10:45:07.943Z,51.7
2017-08-08T10:50:03.127Z,51.4
2017-08-08T10:55:08.225Z,50.7
2017-08-08T11:00:07.977Z,50.7
2017-08-08T11:05:05.691Z,51.7
2017-08-08T11:10:08.333Z,52.5
2017-08-08T11:15:05.967Z,52.7
2017-08-08T11:20:13.271Z,52.7
2017-08-08T11:25:03.476Z,52.7
2017-08-08T11:30:03.612Z,53
2017-08-08T11:35:06.310Z,53.3
2017-08-08T11:40:09.008Z,54
2017-08-08T11:45:03.207Z,53.9
2017-08-08T11:50:03.551Z,53
2017-08-08T11:55:06.249Z,53.8
2017-08-08T12:00:03.414Z,53.9
2017-08-08T12:05:03.552Z,55.1
2017-08-08T12:10:10.754Z,52.5
2017-08-08T12:15:24.206Z,51.6
2017-08-08T12:20:06.014Z,52.1
2017-08-08T12:25:03.077Z,52.1
2017-08-08T12:30:08.223Z,51
2017-08-08T12:35:11.033Z,50.4
2017-08-08T12:40:06.153Z,50.8
2017-08-08T12:45:05.779Z,49.7
2017-08-08T12:50:02.945Z,49.8
2017-08-08T12:55:03.186Z,49.1
2017-08-08T13:00:03.431Z,49.3
2017-08-08T13:05:13.392Z,48.8
2017-08-08T13:10:03.088Z,48.8
2017-08-08T13:15:05.784Z,48.5
2017-08-08T13:20:02.720Z,48.5
2017-08-08T13:25:06.256Z,46.6
2017-08-08T13:30:03.333Z,46.5
2017-08-08T13:35:06.133Z,45.9
2017-08-08T13:40:18.504Z,44.8
2017-08-08T13:45:08.439Z,42.1
2017-08-08T13:50:08.408Z,38.8
2017-08-08T13:55:03.512Z,38.7
2017-08-08T14:00:08.480Z,40.4
2017-08-08T14:05:03.887Z,40.5
2017-08-08T14:10:11.600Z,40.3
2017-08-08T14:15:08.639Z,39.5
2017-08-08T14:20:03.888Z,39.5
2017-08-08T14:25:05.764Z,41.7
2017-08-08T14:30:10.407Z,41.3
2017-08-08T14:35:03.482Z,41.4
2017-08-08T14:40:08.324Z,42.1
2017-08-08T14:45:18.386Z,42.4
2017-08-08T14:50:03.490Z,42.4
2017-08-08T14:55:04.030Z,42.4
2017-08-08T15:00:03.248Z,42.6
2017-08-08T15:05:08.362Z,41.1
2017-08-08T15:10:08.028Z,42
2017-08-08T15:15:05.809Z,42.7
2017-08-08T15:20:05.646Z,43.2
2017-08-08T15:25:06.338Z,44.7
2017-08-08T15:30:06.017Z,45
2017-08-08T15:35:10.967Z,45.2
2017-08-08T15:40:16.224Z,45.4
2017-08-08T15:45:03.356Z,45.3
2017-08-08T15:50:08.402Z,46.6
2017-08-08T15:55:03.532Z,46.6
2017-08-08T16:00:13.706Z,47.5
2017-08-08T16:05:08.926Z,47.8
2017-08-08T16:10:03.636Z,47.8
2017-08-08T16:15:03.878Z,49.1
2017-08-08T16:20:05.860Z,46.5
2017-08-08T16:25:02.923Z,46.5
2017-08-08T16:30:03.062Z,46
2017-08-08T16:35:08.097Z,45.8
2017-08-08T16:40:06.301Z,45.7
2017-08-08T16:45:05.931Z,46.4
2017-08-08T16:50:05.695Z,47.4
2017-08-08T16:55:03.852Z,47.3
2017-08-08T17:00:10.429Z,47.2
2017-08-08T17:05:08.405Z,47.1
2017-08-08T17:10:05.798Z,47.1
2017-08-08T17:15:07.800Z,47.5
2017-08-08T17:20:02.774Z,47.5
2017-08-08T17:25:08.589Z,48.3
2017-08-08T17:30:03.963Z,48.3
2017-08-08T17:35:02.710Z,48
2017-08-08T17:40:02.990Z,48
2017-08-08T17:45:58.516Z,49.6
2017-08-08T17:50:05.858Z,49.6
2017-08-08T17:55:05.150Z,50.1
2017-08-08T18:00:02.875Z,50.2
2017-08-08T18:05:07.696Z,51.1
2017-08-08T18:10:05.789Z,51.3
2017-08-08T18:15:02.562Z,51.3
2017-08-08T18:20:05.927Z,51.5
2017-08-08T18:25:05.191Z,51.6
2017-08-08T18:30:02.949Z,51.7
2017-08-08T18:35:02.655Z,51.5
2017-08-08T18:40:02.889Z,52.4
2017-08-08T18:45:02.665Z,52.2
2017-08-08T18:50:03.422Z,52.4
2017-08-08T18:55:05.709Z,53.2
2017-08-08T19:00:06.027Z,53.3
2017-08-08T19:05:02.754Z,53.3
2017-08-08T19:10:05.505Z,54.2
2017-08-08T19:15:08.459Z,54.5
2017-08-08T19:20:05.866Z,55.2
2017-08-08T19:25:02.612Z,55.2
2017-08-08T19:30:08.490Z,56
2017-08-08T19:35:03.237Z,56
2017-08-08T19:40:08.557Z,56.4
2017-08-08T19:45:08.340Z,56.4
2017-08-08T19:50:10.704Z,56.6
2017-08-08T19:55:05.943Z,56.7
2017-08-08T20:00:05.254Z,57.3
2017-08-08T20:05:02.985Z,57.3
2017-08-08T20:10:03.241Z,57.5
2017-08-08T20:15:10.588Z,57.7
2017-08-08T20:20:13.542Z,58.2
2017-08-08T20:25:03.313Z,58.2
2017-08-08T20:30:05.590Z,58.3
2017-08-08T20:35:03.345Z,58.3
2017-08-08T20:40:17.793Z,58.7
2017-08-08T20:45:07.590Z,58.9
2017-08-08T20:50:05.904Z,58.8
2017-08-08T20:55:05.215Z,58.4
2017-08-08T21:00:08.067Z,58.8
2017-08-08T21:05:05.341Z,58.9
2017-08-08T21:10:17.766Z,59.3
2017-08-08T21:15:06.030Z,59.3
2017-08-08T21:20:02.869Z,59.3
2017-08-08T21:25:05.186Z,59.8
2017-08-08T21:30:05.461Z,59.7
2017-08-08T21:35:05.746Z,59.9
2017-08-08T21:40:13.099Z,59.9
2017-08-08T21:45:05.368Z,60.2
2017-08-08T21:50:03.115Z,60.2
2017-08-08T21:55:02.863Z,61
2017-08-08T22:00:02.641Z,61.5
2017-08-08T22:05:08.480Z,62.2
2017-08-08T22:10:02.667Z,62.2
2017-08-08T22:15:03.434Z,62.3
2017-08-08T22:20:13.379Z,61.9
2017-08-08T22:25:05.619Z,61.8
2017-08-08T22:30:03.516Z,61.8
2017-08-08T22:35:08.326Z,62.5
2017-08-08T22:40:08.628Z,62.4
2017-08-08T22:45:05.921Z,62.8
2017-08-08T22:50:05.214Z,62.8
2017-08-08T22:55:08.025Z,63.1
2017-08-08T23:00:05.288Z,63.1
2017-08-08T23:05:10.632Z,62.5
2017-08-08T23:10:05.358Z,62.2
2017-08-08T23:15:08.184Z,63.3
2017-08-08T23:20:02.977Z,63.4
2017-08-08T23:25:12.996Z,63.5
2017-08-08T23:30:12.821Z,63.5
2017-08-08T23:35:05.116Z,63.3
2017-08-08T23:40:05.887Z,63.6
2017-08-08T23:45:15.275Z,63.2
2017-08-08T23:50:03.006Z,63.2
2017-08-08T23:55:12.893Z,62.8
